Parkman, Wyoming
Current Conditions -  °F | °C
As of 12:53 PM on Tuesday 21 Oct 2014 (Local Time) from KSHR Reporting Station
Clear Clear  
Wind Chill: 76°   Ceiling: Unl
Heat Index: 76°   Visibility: 10mi
Dew Point: 34°   Wind: 12mph
Humidity: 22%   Direction: 210°SSW
Pressure: 29.7"   Gusts: NA
Location:  44.96°N, 107.33°W
Report Text: KSHR 211853Z AUTO 21010KT 10SM CLR 24/01 A2970 RMK AO2 SLP034 T02440011 TSNO
Loading
Personal Weather Stations






























Interactive Weather Map
Tropical Storm Tracking
New forecast layout! Learn more

10-Day Weather Forecast

Advertisements
Track Severe Weather on mobile